Time;durP1;ratioP1;P1;durP2;ratioP2;P2;SDS_P1;SDS_P2;PMS_P1;PMS_P2;Temp;Humidity;BMP_temperature;BMP_pressure;BME280_temperature;BME280_humidity;BME280_pressure;Samples;Min_cycle;Max_cycle;Signal;HPM_P1;HPM_P2
2021/10/31 00:00:10;;;;;;;11.23;5.93;;;;;;;10.02;100.00;100424.84;2091605;28;20521;-46
2021/10/31 00:01:11;;;;;;;13.80;6.38;;;;;;;10.02;100.00;100430.06;2091626;28;20146;-47
2021/10/31 00:02:12;;;;;;;11.32;6.22;;;;;;;10.03;100.00;100430.94;2091663;28;20028;-46
2021/10/31 00:03:14;;;;;;;11.23;6.40;;;;;;;10.03;100.00;100428.31;2091577;28;20456;-45
2021/10/31 00:04:14;;;;;;;14.63;7.53;;;;;;;10.02;100.00;100435.28;2091610;28;20588;-48
2021/10/31 00:05:15;;;;;;;11.10;6.50;;;;;;;10.02;100.00;100427.47;2091611;28;20025;-46
2021/10/31 00:06:15;;;;;;;12.73;6.10;;;;;;;10.00;100.00;100434.53;2091567;28;20057;-47
2021/10/31 00:07:15;;;;;;;9.47;6.43;;;;;;;10.00;100.00;100433.69;2091606;28;20041;-45
2021/10/31 00:08:16;;;;;;;10.60;6.07;;;;;;;9.99;100.00;100440.63;2091520;28;20044;-48
2021/10/31 00:09:16;;;;;;;13.37;5.70;;;;;;;9.98;100.00;100441.56;2091534;28;20029;-46
2021/10/31 00:10:17;;;;;;;14.80;6.60;;;;;;;9.96;100.00;100435.56;2091552;28;20029;-46
2021/10/31 00:11:18;;;;;;;10.88;6.38;;;;;;;9.97;100.00;100442.50;2090769;28;20021;-45
2021/10/31 00:12:18;;;;;;;9.35;5.90;;;;;;;9.95;100.00;100439.09;2090930;28;20036;-45
2021/10/31 00:13:18;;;;;;;13.83;6.53;;;;;;;9.96;100.00;100439.94;2091591;28;20447;-46
2021/10/31 00:14:18;;;;;;;11.93;6.17;;;;;;;9.95;100.00;100444.31;2091487;28;20036;-48
2021/10/31 00:15:19;;;;;;;9.63;5.90;;;;;;;9.95;100.00;100444.31;2091511;28;20466;-47
2021/10/31 00:16:19;;;;;;;10.60;6.23;;;;;;;9.94;100.00;100442.63;2091292;28;20045;-47
2021/10/31 00:17:20;;;;;;;12.10;5.53;;;;;;;9.94;100.00;100441.78;2091454;28;20028;-47
2021/10/31 00:18:21;;;;;;;10.32;6.20;;;;;;;9.92;100.00;100439.22;2091544;28;20029;-47
2021/10/31 00:19:28;;;;;;;10.57;5.30;;;;;;;9.92;100.00;100439.22;2091434;28;20024;-46
2021/10/31 00:20:28;;;;;;;11.50;6.03;;;;;;;9.90;100.00;100441.06;2091586;28;20104;-46
2021/10/31 00:21:28;;;;;;;17.33;6.50;;;;;;;9.90;100.00;100441.06;2091468;28;20037;-47
2021/10/31 00:22:29;;;;;;;12.40;6.33;;;;;;;9.89;100.00;100442.00;2091524;28;20029;-46
2021/10/31 00:23:30;;;;;;;9.50;5.38;;;;;;;9.89;100.00;100444.59;2091339;28;20036;-47
2021/10/31 00:24:30;;;;;;;10.70;5.87;;;;;;;9.88;100.00;100438.53;2091491;28;20025;-50
2021/10/31 00:25:30;;;;;;;10.77;5.97;;;;;;;9.86;100.00;100439.53;2091355;28;20131;-47
2021/10/31 00:26:30;;;;;;;12.07;5.60;;;;;;;9.84;100.00;100436.13;2091406;28;20021;-47
2021/10/31 00:27:31;;;;;;;12.27;5.70;;;;;;;9.83;100.00;100440.53;2091402;28;20021;-46
2021/10/31 00:28:31;;;;;;;12.30;5.70;;;;;;;9.83;100.00;100439.66;2091432;28;20489;-46
2021/10/31 00:29:32;;;;;;;11.35;5.93;;;;;;;9.84;100.00;100442.19;2091395;28;20028;-46
2021/10/31 00:30:32;;;;;;;13.27;6.57;;;;;;;9.84;100.00;100446.56;2091452;28;20431;-47
2021/10/31 00:31:32;;;;;;;11.77;6.47;;;;;;;9.85;100.00;100443.06;2091366;28;20021;-47
2021/10/31 00:32:33;;;;;;;10.20;5.50;;;;;;;9.84;100.00;100441.34;2091397;28;20542;-46
2021/10/31 00:33:33;;;;;;;13.73;5.82;;;;;;;9.85;100.00;100448.28;2091396;28;20505;-46
2021/10/31 00:34:34;;;;;;;8.27;5.77;;;;;;;9.84;100.00;100446.56;2091341;28;20482;-47
2021/10/31 00:35:34;;;;;;;9.57;5.63;;;;;;;9.83;100.00;100445.72;2091260;28;20413;-47
2021/10/31 00:36:36;;;;;;;11.57;5.90;;;;;;;9.82;100.00;100449.22;2091295;28;20025;-46
2021/10/31 00:37:37;;;;;;;8.00;5.57;;;;;;;9.82;100.00;100448.41;2091280;28;20024;-47
2021/10/31 00:38:37;;;;;;;11.87;5.63;;;;;;;9.79;100.00;100449.41;2091318;28;20052;-46
2021/10/31 00:39:38;;;;;;;10.27;6.00;;;;;;;9.78;100.00;100453.75;2091275;28;20021;-47
2021/10/31 00:40:38;;;;;;;9.88;5.88;;;;;;;9.77;100.00;100446.84;2091288;28;20017;-46
2021/10/31 00:41:38;;;;;;;11.37;5.73;;;;;;;9.75;100.00;100453.06;2091285;28;20482;-47
2021/10/31 00:42:40;;;;;;;11.20;6.38;;;;;;;9.73;100.00;100455.72;2091249;28;20049;-46
2021/10/31 00:43:41;;;;;;;13.50;6.63;;;;;;;9.74;100.00;100449.59;2091294;28;20029;-45
2021/10/31 00:44:42;;;;;;;12.50;6.38;;;;;;;9.74;100.00;100451.34;2091445;28;20051;-45
2021/10/31 00:45:43;;;;;;;11.15;6.25;;;;;;;9.71;100.00;100449.72;2090543;28;20024;-46
2021/10/31 00:46:43;;;;;;;9.73;6.00;;;;;;;9.70;100.00;100453.25;2090685;28;20023;-47
2021/10/31 00:47:44;;;;;;;10.63;5.57;;;;;;;9.71;100.00;100452.34;2091221;28;20036;-47
2021/10/31 00:48:44;;;;;;;8.33;5.67;;;;;;;9.71;100.00;100449.72;2090711;28;20029;-48
2021/10/31 00:49:44;;;;;;;13.07;5.87;;;;;;;9.70;100.00;100450.66;2091275;28;20025;-47
2021/10/31 00:50:49;;;;;;;11.37;6.27;;;;;;;9.69;100.00;100450.72;2091319;28;20025;-49
2021/10/31 00:51:51;;;;;;;12.13;5.75;;;;;;;9.65;100.00;100440.44;2091141;28;20032;-48
2021/10/31 00:52:51;;;;;;;12.63;6.60;;;;;;;9.66;100.00;100449.09;2091159;28;20444;-47
2021/10/31 00:53:53;;;;;;;12.57;5.68;;;;;;;9.65;100.00;100448.25;2091170;28;20119;-47
2021/10/31 00:54:55;;;;;;;12.73;5.55;;;;;;;9.65;100.00;100450.84;2091194;28;20021;-47
2021/10/31 00:55:55;;;;;;;;;;;;;;;9.68;100.00;100446.44;2091552;28;20021;-47
2021/10/31 00:56:55;;;;;;;14.90;5.82;;;;;;;9.65;100.00;100452.63;2091167;28;19919;-46
2021/10/31 00:57:57;;;;;;;11.70;5.63;;;;;;;9.61;100.00;100445.88;2091161;28;20100;-47
2021/10/31 00:58:57;;;;;;;11.63;5.80;;;;;;;9.60;100.00;100450.22;2091114;28;20094;-47
2021/10/31 00:59:58;;;;;;;12.67;5.90;;;;;;;9.60;100.00;100445.00;2091095;28;20489;-46
2021/10/31 01:00:59;;;;;;;15.10;6.40;;;;;;;9.60;100.00;100449.34;2091128;28;20059;-46
2021/10/31 01:02:01;;;;;;;9.97;5.80;;;;;;;9.58;100.00;100446.00;2091169;28;20096;-47
2021/10/31 01:03:02;;;;;;;11.50;6.07;;;;;;;9.58;100.00;100443.38;2091143;28;20028;-47
2021/10/31 01:04:04;;;;;;;14.48;6.88;;;;;;;9.57;100.00;100457.31;2091099;28;20024;-46
2021/10/31 01:05:07;;;;;;;13.05;6.60;;;;;;;9.58;100.00;100452.03;2091089;28;20396;-47
2021/10/31 01:06:41;;;;;;;10.95;6.13;;;;;;;9.58;100.00;100448.59;2091057;28;20078;-46
2021/10/31 01:08:00;;;;;;;8.93;5.43;;;;;;;9.58;100.00;100448.59;2091052;28;20021;-47
2021/10/31 01:09:20;;;;;;;12.20;6.60;;;;;;;9.59;100.00;100450.28;2091054;28;20036;-46
2021/10/31 01:10:27;;;;;;;8.55;5.43;;;;;;;9.59;100.00;100460.69;2091080;28;20055;-49
2021/10/31 01:12:01;;;;;;;13.57;5.95;;;;;;;9.57;100.00;100458.16;2090945;28;20071;-46
2021/10/31 01:13:13;;;;;;;12.05;5.93;;;;;;;9.56;100.00;100458.22;2091004;28;20100;-46
2021/10/31 01:14:27;;;;;;;13.35;6.45;;;;;;;9.51;100.00;100461.03;2090965;28;20496;-47
2021/10/31 01:15:42;;;;;;;15.02;6.63;;;;;;;9.50;100.00;100460.19;2091131;28;20107;-46
2021/10/31 01:17:17;;;;;;;13.73;6.25;;;;;;;9.48;100.00;100459.41;2090953;28;20029;-45
2021/10/31 01:18:41;;;;;;;11.45;6.43;;;;;;;9.47;100.00;100460.31;2090914;28;20398;-46
2021/10/31 01:19:56;;;;;;;12.85;6.00;;;;;;;9.45;100.00;100467.38;2090976;28;20108;-46
2021/10/31 01:21:27;;;;;;;11.80;7.05;;;;;;;9.43;100.00;100469.19;2091002;28;20109;-46
2021/10/31 01:23:04;;;;;;;14.95;6.60;;;;;;;9.43;100.00;100460.53;2090945;28;20021;-45
2021/10/31 01:24:25;;;;;;;14.02;6.35;;;;;;;9.45;100.00;100461.31;2090869;28;20029;-47
2021/10/31 01:25:47;;;;;;;10.50;6.40;;;;;;;9.44;100.00;100457.84;2090946;28;20040;-47
2021/10/31 01:27:01;;;;;;;;;;;;;;;9.45;100.00;100466.53;2090656;28;20102;-47
2021/10/31 01:28:20;;;;;;;11.90;6.05;;;;;;;9.43;100.00;100458.78;2090461;28;20396;-46
2021/10/31 01:29:40;;;;;;;12.48;6.85;;;;;;;9.44;100.00;100470.06;2090870;28;20033;-47
2021/10/31 01:30:40;;;;;;;12.75;6.65;;;;;;;9.49;100.00;100473.28;2090928;28;20052;-47
2021/10/31 01:31:51;;;;;;;11.90;6.90;;;;;;;9.50;100.00;100474.97;2090911;28;20025;-46
2021/10/31 01:33:28;;;;;;;12.93;7.10;;;;;;;9.48;100.00;100475.03;2090930;28;20067;-46
2021/10/31 01:34:45;;;;;;;14.55;7.32;;;;;;;9.44;100.00;100468.28;2090921;28;20106;-46
2021/10/31 01:36:00;;;;;;;12.60;7.60;;;;;;;9.41;100.00;100471.00;2090864;28;20016;-48
2021/10/31 01:37:28;;;;;;;12.73;7.13;;;;;;;9.38;100.00;100463.34;2090706;28;20032;-46
2021/10/31 01:38:46;;;;;;;10.73;6.72;;;;;;;9.37;100.00;100466.84;2090793;28;20025;-45
2021/10/31 01:39:58;;;;;;;11.07;7.32;;;;;;;9.34;100.00;100469.59;2090230;28;20039;-46
2021/10/31 01:41:10;;;;;;;14.63;7.15;;;;;;;9.30;100.00;100468.88;2090340;28;20450;-45
2021/10/31 01:42:25;;;;;;;14.52;8.63;;;;;;;9.26;100.00;100473.38;2090815;28;20115;-46
2021/10/31 01:43:42;;;;;;;15.23;7.25;;;;;;;9.24;100.00;100469.97;2090821;28;20060;-45
2021/10/31 01:45:12;;;;;;;12.10;7.00;;;;;;;9.22;100.00;100474.41;2090798;28;20040;-45
2021/10/31 01:46:15;;;;;;;11.82;7.00;;;;;;;9.18;100.00;100472.00;2090693;28;20034;-45
2021/10/31 01:47:44;;;;;;;14.85;7.00;;;;;;;9.16;100.00;100473.84;2090797;28;20029;-45
2021/10/31 01:49:08;;;;;;;14.27;7.03;;;;;;;9.13;100.00;100480.00;2090786;28;20478;-46
2021/10/31 01:50:39;;;;;;;16.00;7.65;;;;;;;9.15;100.00;100470.38;2090787;28;20024;-46
2021/10/31 01:51:46;;;;;;;12.15;6.95;;;;;;;9.14;100.00;100471.31;2086110;28;20036;-47
2021/10/31 01:52:48;;;;;;;14.80;8.32;;;;;;;9.12;100.00;100473.09;2090749;28;20025;-46
2021/10/31 01:54:01;;;;;;;12.35;7.47;;;;;;;9.10;100.00;100477.56;2090727;28;20028;-46
2021/10/31 01:55:05;;;;;;;13.65;7.03;;;;;;;9.07;100.00;100475.06;2090687;28;20115;-45
2021/10/31 01:56:10;;;;;;;14.35;8.52;;;;;;;9.06;100.00;100476.00;2090615;28;20024;-45
2021/10/31 01:57:17;;;;;;;17.00;8.52;;;;;;;9.07;100.00;100477.66;2090666;28;20035;-46
2021/10/31 01:58:20;;;;;;;19.15;8.35;;;;;;;9.05;100.00;100475.13;2090649;28;20478;-46
2021/10/31 01:59:25;;;;;;;16.90;9.13;;;;;;;9.07;100.00;100475.06;2090678;28;20032;-44
2021/10/31 02:00:29;;;;;;;13.13;8.30;;;;;;;9.06;100.00;100470.78;2089973;28;20516;-44
2021/10/31 02:01:32;;;;;;;15.85;9.13;;;;;;;9.05;100.00;100474.28;2090446;28;20043;-44
2021/10/31 02:02:40;;;;;;;13.32;8.00;;;;;;;9.01;100.00;100474.41;2090533;28;20128;-45
2021/10/31 02:03:41;;;;;;;15.27;9.02;;;;;;;9.00;100.00;100472.72;2090566;28;20028;-45
2021/10/31 02:04:45;;;;;;;21.90;9.48;;;;;;;9.01;100.00;100476.16;2090585;28;20033;-46
2021/10/31 02:05:48;;;;;;;15.23;8.23;;;;;;;9.00;100.00;100477.91;2090570;28;20059;-45
2021/10/31 02:06:51;;;;;;;13.48;8.05;;;;;;;8.99;100.00;100481.44;2090599;28;20024;-45
2021/10/31 02:07:54;;;;;;;16.45;9.30;;;;;;;8.98;100.00;100479.75;2090518;28;20079;-45
2021/10/31 02:08:57;;;;;;;15.60;8.23;;;;;;;8.96;100.00;100476.34;2090579;28;20025;-45
2021/10/31 02:09:59;;;;;;;13.38;8.30;;;;;;;8.98;100.00;100478.91;2090508;28;20040;-45
2021/10/31 02:11:01;;;;;;;15.77;9.38;;;;;;;8.95;100.00;100485.06;2090539;28;20044;-45
2021/10/31 02:12:04;;;;;;;15.70;8.82;;;;;;;8.93;100.00;100480.84;2090441;28;20033;-44
2021/10/31 02:13:05;;;;;;;16.02;8.20;;;;;;;8.93;100.00;100481.69;2089814;28;20119;-45
2021/10/31 02:14:06;;;;;;;14.63;9.40;;;;;;;8.92;100.00;100482.59;2089889;28;20025;-46
2021/10/31 02:15:12;;;;;;;13.88;9.50;;;;;;;8.92;100.00;100477.38;2090509;28;20040;-46
2021/10/31 02:16:16;;;;;;;20.65;9.02;;;;;;;8.92;100.00;100477.38;2090165;28;20097;-45
2021/10/31 02:17:19;;;;;;;16.85;9.52;;;;;;;8.92;100.00;100472.19;2090488;28;20410;-46
2021/10/31 02:18:21;;;;;;;15.10;9.75;;;;;;;8.93;100.00;100476.47;2090463;28;20024;-45
2021/10/31 02:19:26;;;;;;;13.93;9.50;;;;;;;8.92;100.00;100466.97;2090426;28;20398;-45
2021/10/31 02:20:28;;;;;;;15.25;9.77;;;;;;;8.94;100.00;100480.78;2090532;28;20061;-45
2021/10/31 02:21:31;;;;;;;15.45;8.75;;;;;;;8.93;100.00;100471.28;2090461;28;20021;-46
2021/10/31 02:22:34;;;;;;;18.10;9.07;;;;;;;8.93;100.00;100479.06;2090419;28;20520;-45
2021/10/31 02:23:34;;;;;;;17.27;9.30;;;;;;;8.91;100.00;100474.84;2090405;28;20029;-46
2021/10/31 02:24:36;;;;;;;15.23;8.50;;;;;;;8.92;100.00;100480.00;2090385;28;20028;-46
2021/10/31 02:25:36;;;;;;;12.95;8.93;;;;;;;8.91;100.00;100483.50;2090427;28;20393;-45
2021/10/31 02:26:38;;;;;;;17.10;9.37;;;;;;;8.91;100.00;100475.72;2090443;28;20033;-47
2021/10/31 02:27:45;;;;;;;15.57;9.15;;;;;;;8.90;100.00;100481.81;2090494;28;20013;-46
2021/10/31 02:29:00;;;;;;;14.50;8.65;;;;;;;8.91;100.00;100482.66;2090442;28;20013;-46
2021/10/31 02:30:03;;;;;;;14.18;8.98;;;;;;;8.89;100.00;100472.31;2090386;28;20059;-46
2021/10/31 02:31:03;;;;;;;14.50;8.73;;;;;;;8.89;100.00;100482.72;2090362;28;20385;-46
2021/10/31 02:32:04;;;;;;;14.73;9.32;;;;;;;8.86;100.00;100475.88;2090411;28;20067;-47
2021/10/31 02:33:04;;;;;;;15.23;9.63;;;;;;;8.87;100.00;100476.75;2090552;28;20029;-46
2021/10/31 02:34:06;;;;;;;16.60;8.87;;;;;;;8.88;100.00;100483.63;2090469;28;20292;-47
2021/10/31 02:35:08;;;;;;;;;;;;;;;8.89;100.00;100469.72;2090808;28;20024;-45
2021/10/31 02:36:09;;;;;;;17.30;8.35;;;;;;;8.87;100.00;100472.38;2090282;28;19915;-47
2021/10/31 02:37:10;;;;;;;17.03;9.33;;;;;;;8.86;100.00;100475.06;2090298;28;20128;-47
2021/10/31 02:38:10;;;;;;;16.42;10.07;;;;;;;8.85;100.00;100473.34;2090392;28;20021;-46
2021/10/31 02:39:11;;;;;;;17.93;10.07;;;;;;;8.84;100.00;100471.66;2090392;28;20477;-46
2021/10/31 02:40:14;;;;;;;17.63;10.13;;;;;;;8.84;100.00;100474.25;2090358;28;20060;-47
2021/10/31 02:41:14;;;;;;;17.05;9.43;;;;;;;8.84;100.00;100472.53;2090328;28;20406;-47
2021/10/31 02:42:15;;;;;;;20.33;10.13;;;;;;;8.85;100.00;100474.19;2090423;28;20017;-48
2021/10/31 02:43:15;;;;;;;17.73;9.93;;;;;;;8.87;100.00;100471.53;2090484;28;20486;-46
2021/10/31 02:44:16;;;;;;;15.50;10.40;;;;;;;8.87;100.00;100472.38;2090354;28;20082;-46
2021/10/31 02:45:17;;;;;;;16.77;10.27;;;;;;;8.87;100.00;100468.94;2090291;28;20021;-45
2021/10/31 02:46:17;;;;;;;17.60;11.05;;;;;;;8.87;100.00;100466.34;2090346;28;20314;-46
2021/10/31 02:47:25;;;;;;;17.43;9.73;;;;;;;8.86;100.00;100469.84;2090317;28;20036;-48
2021/10/31 02:48:26;;;;;;;16.83;10.38;;;;;;;8.85;100.00;100463.78;2090310;28;20480;-46
2021/10/31 02:49:29;;;;;;;21.00;10.43;;;;;;;8.85;100.00;100462.94;2090241;28;20024;-47
2021/10/31 02:50:32;;;;;;;19.02;10.75;;;;;;;8.85;100.00;100458.59;2090403;28;20024;-46
2021/10/31 02:51:50;;;;;;;14.85;10.52;;;;;;;8.87;100.00;100471.53;2090325;28;20025;-48
2021/10/31 02:53:08;;;;;;;16.80;9.93;;;;;;;8.87;100.00;100467.16;2090322;28;20052;-46
2021/10/31 02:54:38;;;;;;;15.68;10.25;;;;;;;8.89;100.00;100469.72;2090248;28;20024;-47
2021/10/31 02:56:15;;;;;;;17.42;10.77;;;;;;;8.91;100.00;100462.69;2087986;28;20047;-46
2021/10/31 02:57:30;;;;;;;17.35;10.13;;;;;;;8.92;100.00;100466.97;2090184;28;20033;-46
2021/10/31 02:58:52;;;;;;;17.42;10.32;;;;;;;8.93;100.00;100471.28;2090201;28;20379;-45
2021/10/31 02:59:57;;;;;;;20.20;10.45;;;;;;;8.92;100.00;100463.53;2090215;28;20500;-45
2021/10/31 03:01:00;;;;;;;19.73;10.27;;;;;;;8.90;100.00;100466.22;2089447;28;20036;-46
2021/10/31 03:02:01;;;;;;;17.38;9.98;;;;;;;8.90;100.00;100455.81;2089562;28;20099;-45
2021/10/31 03:03:02;;;;;;;19.17;11.38;;;;;;;8.89;100.00;100461.91;2089502;28;20033;-45
2021/10/31 03:04:03;;;;;;;15.25;10.48;;;;;;;8.88;100.00;100452.41;2089617;28;20024;-45
2021/10/31 03:05:03;;;;;;;15.85;10.18;;;;;;;8.88;100.00;100449.81;2090237;28;20028;-45
2021/10/31 03:06:04;;;;;;;18.33;11.43;;;;;;;8.88;100.00;100460.22;2090207;28;20021;-45
2021/10/31 03:07:05;;;;;;;18.52;10.25;;;;;;;8.88;100.00;100453.25;2090220;28;20103;-45
2021/10/31 03:08:06;;;;;;;17.25;11.65;;;;;;;8.91;100.00;100461.84;2090323;28;20382;-44
2021/10/31 03:09:06;;;;;;;18.23;10.20;;;;;;;8.91;100.00;100454.03;2090225;28;20394;-46
2021/10/31 03:10:07;;;;;;;16.83;11.53;;;;;;;8.91;100.00;100454.03;2090155;28;20116;-44
2021/10/31 03:11:08;;;;;;;20.33;11.13;;;;;;;8.92;100.00;100453.13;2090220;28;20031;-45
2021/10/31 03:12:09;;;;;;;;;;;;;;;8.93;100.00;100453.06;2090478;28;20032;-46
2021/10/31 03:13:09;;;;;;;16.80;9.73;;;;;;;8.93;100.00;100455.66;2090163;28;20289;-44
2021/10/31 03:14:10;;;;;;;17.83;9.87;;;;;;;8.94;100.00;100452.16;2090199;28;20033;-44
2021/10/31 03:15:10;;;;;;;18.17;9.97;;;;;;;8.95;100.00;100455.59;2089418;28;20056;-45
2021/10/31 03:16:11;;;;;;;17.10;10.18;;;;;;;8.95;100.00;100456.44;2089296;28;20049;-46
2021/10/31 03:17:12;;;;;;;17.08;10.65;;;;;;;8.94;100.00;100452.16;2090159;28;20049;-45
2021/10/31 03:18:12;;;;;;;20.15;10.48;;;;;;;8.92;100.00;100453.97;2090161;28;20488;-44
2021/10/31 03:19:12;;;;;;;21.90;10.70;;;;;;;8.94;100.00;100454.75;2090169;28;20033;-45
2021/10/31 03:20:13;;;;;;;20.00;10.27;;;;;;;8.94;100.00;100452.16;2090137;28;20108;-45
2021/10/31 03:21:13;;;;;;;17.67;12.13;;;;;;;8.93;100.00;100449.63;2090192;28;20028;-44
2021/10/31 03:22:13;;;;;;;16.67;10.83;;;;;;;8.93;100.00;100445.25;2090215;28;20275;-44
2021/10/31 03:23:14;;;;;;;18.63;10.43;;;;;;;8.94;100.00;100452.16;2090145;28;20103;-45
2021/10/31 03:24:14;;;;;;;18.67;11.10;;;;;;;8.95;100.00;100453.00;2090108;28;20083;-45
2021/10/31 03:25:14;;;;;;;16.70;11.23;;;;;;;8.92;100.00;100448.75;2090018;28;20287;-47
2021/10/31 03:26:14;;;;;;;15.07;11.10;;;;;;;8.92;100.00;100453.97;2090103;28;20029;-45
2021/10/31 03:27:15;;;;;;;17.83;10.73;;;;;;;8.92;100.00;100456.56;2090055;28;20082;-44
2021/10/31 03:28:15;;;;;;;19.80;10.52;;;;;;;8.94;100.00;100452.16;2090140;28;20028;-45
2021/10/31 03:29:16;;;;;;;17.73;10.03;;;;;;;8.95;100.00;100447.78;2090112;28;20057;-44
2021/10/31 03:30:16;;;;;;;20.13;10.73;;;;;;;8.95;100.00;100455.59;2090182;28;20052;-45
2021/10/31 03:31:17;;;;;;;15.23;10.10;;;;;;;8.94;100.00;100452.16;2090068;28;20051;-45
2021/10/31 03:32:17;;;;;;;19.80;11.47;;;;;;;8.93;100.00;100453.06;2090117;28;20037;-46
2021/10/31 03:33:18;;;;;;;17.38;10.95;;;;;;;8.93;100.00;100454.81;2090007;28;20522;-45
2021/10/31 03:34:19;;;;;;;16.23;10.97;;;;;;;8.93;100.00;100450.44;2090198;28;20025;-45
2021/10/31 03:35:19;;;;;;;17.23;10.55;;;;;;;8.93;100.00;100453.06;2090095;28;20075;-44
2021/10/31 03:36:19;;;;;;;17.27;9.77;;;;;;;8.94;100.00;100459.13;2090006;28;20078;-44
2021/10/31 03:37:20;;;;;;;21.73;10.43;;;;;;;8.94;100.00;100452.16;2089975;28;20035;-46
2021/10/31 03:38:20;;;;;;;20.90;10.23;;;;;;;8.95;100.00;100451.25;2090083;28;20187;-44
2021/10/31 03:39:22;;;;;;;17.73;10.48;;;;;;;8.94;100.00;100452.16;2090058;28;20037;-45
2021/10/31 03:40:22;;;;;;;16.75;10.48;;;;;;;8.93;100.00;100453.06;2090052;28;20059;-44
2021/10/31 03:41:23;;;;;;;20.47;10.30;;;;;;;8.94;100.00;100441.75;2090072;28;20025;-45
2021/10/31 03:42:23;;;;;;;19.30;11.67;;;;;;;8.94;100.00;100443.50;2090017;28;20029;-45
2021/10/31 03:43:23;;;;;;;16.23;10.43;;;;;;;8.95;100.00;100443.44;2090053;28;20037;-47
2021/10/31 03:44:24;;;;;;;19.10;10.53;;;;;;;8.97;100.00;100446.81;2090046;28;20275;-46
2021/10/31 03:45:24;;;;;;;16.53;10.57;;;;;;;8.97;100.00;100436.41;2090053;28;20049;-45
2021/10/31 03:46:24;;;;;;;18.73;10.73;;;;;;;8.98;100.00;100442.47;2090025;28;20086;-46
2021/10/31 03:47:27;;;;;;;17.33;10.37;;;;;;;8.97;100.00;100439.00;2090131;28;20112;-45
2021/10/31 03:48:27;;;;;;;16.67;10.43;;;;;;;8.97;100.00;100438.16;2089997;28;20078;-46
2021/10/31 03:49:27;;;;;;;15.80;10.07;;;;;;;8.98;100.00;100429.44;2089921;28;20382;-46
2021/10/31 03:50:28;;;;;;;15.03;10.23;;;;;;;8.98;100.00;100429.44;2090061;28;20060;-45
2021/10/31 03:51:28;;;;;;;19.23;10.80;;;;;;;8.99;100.00;100438.94;2090105;28;20028;-47
2021/10/31 03:52:28;;;;;;;15.80;8.83;;;;;;;9.01;100.00;100442.34;2090139;28;20017;-46
2021/10/31 03:53:28;;;;;;;16.63;9.60;;;;;;;9.02;100.00;100434.47;2090007;28;20470;-47
2021/10/31 03:54:29;;;;;;;15.37;9.87;;;;;;;9.04;100.00;100436.16;2090063;28;20036;-46
2021/10/31 03:55:29;;;;;;;15.83;9.83;;;;;;;9.04;100.00;100430.94;2090039;28;20019;-46
2021/10/31 03:56:29;;;;;;;14.70;10.87;;;;;;;9.02;100.00;100429.25;2090026;28;20028;-46
2021/10/31 03:57:30;;;;;;;17.50;10.00;;;;;;;9.00;100.00;100436.28;2089994;28;20086;-44
2021/10/31 03:58:30;;;;;;;19.17;10.97;;;;;;;9.02;100.00;100437.06;2090040;28;20072;-47
2021/10/31 03:59:30;;;;;;;18.97;10.33;;;;;;;9.01;100.00;100427.53;2089997;28;20025;-47
2021/10/31 04:00:30;;;;;;;16.10;10.97;;;;;;;9.01;100.00;100430.16;2089983;28;20486;-45
2021/10/31 04:01:32;;;;;;;16.37;10.90;;;;;;;9.00;100.00;100425.84;2089938;28;20060;-44
2021/10/31 04:02:34;;;;;;;17.35;10.23;;;;;;;8.99;100.00;100423.31;2089981;28;20095;-45
2021/10/31 04:03:34;;;;;;;18.60;10.27;;;;;;;8.99;100.00;100424.19;2089910;28;20126;-45
2021/10/31 04:04:34;;;;;;;13.63;9.90;;;;;;;8.99;100.00;100426.78;2089321;28;20025;-43
2021/10/31 04:05:35;;;;;;;18.30;10.50;;;;;;;8.98;100.00;100427.69;2089330;28;20098;-44
2021/10/31 04:06:35;;;;;;;16.33;10.97;;;;;;;8.99;100.00;100429.38;2089926;28;20017;-43
2021/10/31 04:07:35;;;;;;;19.20;10.53;;;;;;;8.99;100.00;100429.38;2089918;28;20032;-44
2021/10/31 04:08:35;;;;;;;14.80;9.30;;;;;;;8.97;100.00;100425.97;2090026;28;20017;-45
2021/10/31 04:09:36;;;;;;;18.83;9.80;;;;;;;8.99;100.00;100429.38;2089982;28;20025;-45
2021/10/31 04:10:36;;;;;;;16.25;9.80;;;;;;;8.99;100.00;100429.38;2089270;28;20076;-44
2021/10/31 04:11:37;;;;;;;17.80;10.32;;;;;;;8.99;100.00;100426.78;2089325;28;20071;-44
2021/10/31 04:12:37;;;;;;;14.87;9.93;;;;;;;9.01;100.00;100421.50;2090006;28;20025;-45
2021/10/31 04:13:37;;;;;;;16.87;9.90;;;;;;;8.98;100.00;100419.91;2090014;28;20013;-44
2021/10/31 04:14:37;;;;;;;14.53;10.57;;;;;;;8.97;100.00;100420.78;2089920;28;20024;-44
2021/10/31 04:15:40;;;;;;;16.07;10.33;;;;;;;8.98;100.00;100419.91;2090007;28;20017;-47
2021/10/31 04:16:41;;;;;;;15.73;9.27;;;;;;;8.97;100.00;100420.78;2089764;28;20091;-45
2021/10/31 04:17:41;;;;;;;15.20;9.95;;;;;;;8.96;100.00;100421.69;2089281;28;20497;-46
2021/10/31 04:18:41;;;;;;;14.87;9.80;;;;;;;8.96;100.00;100413.88;2089338;28;20403;-44
2021/10/31 04:19:41;;;;;;;15.73;9.63;;;;;;;8.96;100.00;100418.28;2089870;28;20397;-44
2021/10/31 04:20:42;;;;;;;13.73;9.43;;;;;;;8.94;100.00;100410.53;2089865;28;20070;-47
2021/10/31 04:21:42;;;;;;;19.60;10.93;;;;;;;8.95;100.00;100416.56;2089907;28;20516;-46
2021/10/31 04:22:42;;;;;;;18.00;9.33;;;;;;;8.94;100.00;100420.06;2089894;28;20435;-45
2021/10/31 04:23:43;;;;;;;16.15;9.50;;;;;;;8.94;100.00;100420.06;2090100;28;20036;-45
2021/10/31 04:24:43;;;;;;;14.60;9.03;;;;;;;8.92;100.00;100420.13;2091369;28;20027;-46
2021/10/31 04:25:43;;;;;;;14.30;9.77;;;;;;;8.91;100.00;100415.84;2091435;28;20522;-44
2021/10/31 04:26:44;;;;;;;15.10;9.37;;;;;;;8.93;100.00;100411.41;2091366;28;20009;-44
2021/10/31 04:27:44;;;;;;;15.57;9.33;;;;;;;8.94;100.00;100420.94;2091470;28;20489;-44
2021/10/31 04:28:44;;;;;;;17.38;10.15;;;;;;;8.93;100.00;100421.81;2091379;28;20386;-45
2021/10/31 04:29:45;;;;;;;17.83;9.70;;;;;;;8.94;100.00;100420.06;2091383;28;20036;-47
2021/10/31 04:30:45;;;;;;;15.30;11.13;;;;;;;8.94;100.00;100417.47;2091379;28;20023;-46
2021/10/31 04:31:45;;;;;;;13.00;9.15;;;;;;;8.94;100.00;100413.13;2090685;28;20059;-46
2021/10/31 04:32:46;;;;;;;16.07;9.97;;;;;;;8.93;100.00;100421.00;2090792;28;20505;-44
2021/10/31 04:33:46;;;;;;;17.33;10.03;;;;;;;8.92;100.00;100408.88;2091276;28;20017;-46
2021/10/31 04:34:46;;;;;;;15.23;9.37;;;;;;;8.92;100.00;100411.47;2091395;28;20104;-46
2021/10/31 04:35:47;;;;;;;15.07;9.60;;;;;;;8.92;100.00;100421.88;2091367;28;20031;-46
2021/10/31 04:36:48;;;;;;;14.53;9.20;;;;;;;8.91;100.00;100415.84;2091275;28;20029;-46
2021/10/31 04:37:48;;;;;;;20.20;10.13;;;;;;;8.90;100.00;100411.56;2091451;28;20017;-46
2021/10/31 04:38:54;;;;;;;11.93;8.53;;;;;;;8.88;100.00;100410.78;2091236;28;20103;-45
2021/10/31 04:39:57;;;;;;;18.02;9.38;;;;;;;8.88;100.00;100405.56;2091273;28;20096;-47
2021/10/31 04:40:58;;;;;;;16.08;9.73;;;;;;;8.86;100.00;100410.00;2091252;28;20393;-47
2021/10/31 04:42:05;;;;;;;15.93;9.23;;;;;;;8.86;100.00;100415.22;2091239;28;20492;-46
2021/10/31 04:43:10;;;;;;;14.15;9.32;;;;;;;8.85;100.00;100403.09;2091250;28;20074;-46
2021/10/31 04:44:11;;;;;;;18.27;10.02;;;;;;;8.85;100.00;100406.53;2091251;28;20032;-46
2021/10/31 04:45:11;;;;;;;16.30;10.57;;;;;;;8.85;100.00;100401.34;2091347;28;20473;-46
2021/10/31 04:46:12;;;;;;;16.17;9.50;;;;;;;8.85;100.00;100405.69;2091185;28;20385;-45
2021/10/31 04:47:12;;;;;;;16.93;10.30;;;;;;;8.84;100.00;100409.22;2091320;28;20044;-46
2021/10/31 04:48:13;;;;;;;14.97;9.67;;;;;;;8.83;100.00;100402.31;2091199;28;20478;-47
2021/10/31 04:49:13;;;;;;;13.95;9.63;;;;;;;8.83;100.00;100402.31;2091322;28;20063;-46
2021/10/31 04:50:13;;;;;;;14.67;9.30;;;;;;;8.83;100.00;100408.34;2091100;28;20028;-46
2021/10/31 04:51:14;;;;;;;13.73;9.47;;;;;;;8.85;100.00;100409.16;2091222;28;20056;-46
2021/10/31 04:52:15;;;;;;;18.60;9.13;;;;;;;8.86;100.00;100407.41;2091176;28;20119;-47
2021/10/31 04:53:15;;;;;;;;;;;;;;;8.88;100.00;100400.34;2091590;28;20289;-46
2021/10/31 04:54:16;;;;;;;15.77;8.68;;;;;;;8.88;100.00;100405.56;2091220;28;19909;-46